Overview Statistics Trail Chart Weather Telemetry Raw packets
 

This is the latest recevied weather packets stored in our database for station/object IN3MWE-10. If no packets are shown the sender has not sent any weather packets the latest 10 day(s).

<< 28 29 30 31 32 33 34 >>
Time Temp. Humidity Pressure Rain* Wind** Luminosity Snow
1787998817 34.44° C 29% 978.6 hPa - - - -
1787997917 33.33° C 32% 978.8 hPa - - - -
1787997017 33.33° C 30% 979 hPa - - - -
1787996116 31.67° C 36% 979.3 hPa - - - -
1787995216 32.22° C 35% 979.3 hPa - - - -
1787994316 31.11° C 44% 979.5 hPa - - - -
1787993416 30° C 45% 979.7 hPa - - - -
1787992516 29.44° C 50% 979.8 hPa - - - -
1787991616 28.33° C 52% 979.9 hPa - - - -
1787990716 26.67° C 63% 980 hPa - - - -
1787989815 25.56° C 66% 980.2 hPa - - - -
1787988915 23.89° C 78% 980.4 hPa - - - -
1787988015 20.56° C 100% 980.4 hPa - - - -
1787987115 20° C 100% 980.4 hPa - - - -
1787986215 20° C 100% 980.6 hPa - - - -
1787985315 20° C 100% 980.5 hPa - - - -
1787984415 19.44° C 100% 980.5 hPa - - - -
1787983520 19.44° C 100% 980.4 hPa - - - -
1787982614 18.89° C 100% 980.3 hPa - - - -
1787981714 18.89° C 100% 980.2 hPa - - - -
1787980814 18.89° C 100% 980.2 hPa - - - -
1787979914 18.89° C 100% 980 hPa - - - -
1787979014 18.89° C 100% 979.9 hPa - - - -
1787978114 19.44° C 100% 979.6 hPa - - - -
1787977214 19.44° C 100% 979.7 hPa - - - -

* Rain since midnight (hover to see other rain measurements)
** Current wind speed in m/s (hover to see current wind gust speed)